YPY weather

Fort Chipewyan Airport
Fort Chipewyan, Alberta, Canada

Public forecast

Using degrees Celsius for public forecast. Weather courtesy of forecast.io.

METAR (pilot weather report)

Retrieved 2019/08/23 10:00 UTC (24 minutes ago):

CYPY 231000Z AUTO 00000KT 9SM CLR 05/05 A2989 RMK SLP130

TAF (pilot weather forecast)

Forecast is more than 12 hours old.

Retrieved 2019/08/22 00:00 UTC (1 day ago):

TAF CYPY 222338Z 2300/2306 27018G28KT P6SM BKN040 TEMPO 2300/2304 SCT040 BECMG 2302/2304 27008KT FM230400 27008KT P6SM FEW040 RMK FCST BASED ON AUTO OBS. NXT FCST WILL BE ISSUED AT 231145Z